createdAt,value
2023-04-07T00:00:48.343Z,15.90
2023-04-07T00:03:16.133Z,14.53
2023-04-07T00:05:44.185Z,12.77
2023-04-07T00:08:11.912Z,13.70
2023-04-07T00:10:41.214Z,12.30
2023-04-07T00:13:08.961Z,11.30
2023-04-07T00:15:36.570Z,12.53
2023-04-07T00:18:04.444Z,11.83
2023-04-07T00:20:32.248Z,12.50
2023-04-07T00:22:59.973Z,15.30
2023-04-07T00:25:27.955Z,11.23
2023-04-07T00:27:57.042Z,12.83
2023-04-07T00:30:25.097Z,12.47
2023-04-07T00:32:52.754Z,15.20
2023-04-07T00:35:20.935Z,15.43
2023-04-07T00:37:48.741Z,10.90
2023-04-07T00:40:16.558Z,10.63
2023-04-07T00:42:44.405Z,13.20
2023-04-07T00:45:13.663Z,13.40
2023-04-07T00:47:41.599Z,15.33
2023-04-07T00:50:10.326Z,10.53
2023-04-07T00:52:38.228Z,12.80
2023-04-07T00:55:06.801Z,13.17
2023-04-07T00:57:34.410Z,14.07
2023-04-07T01:00:02.209Z,11.97
2023-04-07T01:02:40.547Z,15.30
2023-04-07T01:05:15.823Z,11.00
2023-04-07T01:07:52.559Z,11.10
2023-04-07T01:10:27.839Z,13.47
2023-04-07T01:13:05.768Z,12.00
2023-04-07T01:15:35.460Z,12.17
2023-04-07T01:18:12.297Z,10.57
2023-04-07T01:20:40.934Z,10.00
2023-04-07T01:23:09.219Z,10.57
2023-04-07T01:25:52.989Z,9.63
2023-04-07T01:28:37.724Z,11.20
2023-04-07T01:31:08.774Z,15.90
2023-04-07T01:33:37.807Z,10.30
2023-04-07T01:36:07.186Z,13.20
2023-04-07T01:38:35.522Z,11.13
2023-04-07T01:41:04.573Z,13.43
2023-04-07T01:43:32.986Z,9.13
2023-04-07T01:46:00.849Z,9.43
2023-04-07T01:48:30.172Z,11.57
2023-04-07T01:50:59.377Z,12.53
2023-04-07T01:53:28.603Z,13.50
2023-04-07T01:55:56.545Z,8.93
2023-04-07T01:58:25.730Z,9.03
2023-04-07T02:00:53.560Z,11.53
2023-04-07T02:03:25.689Z,13.27
2023-04-07T02:05:57.367Z,8.63
2023-04-07T02:08:30.461Z,13.00
2023-04-07T02:11:00.112Z,11.40
2023-04-07T02:13:34.257Z,10.27
2023-04-07T02:16:02.661Z,8.23
2023-04-07T02:18:32.265Z,8.57
2023-04-07T02:21:02.827Z,9.60
2023-04-07T02:23:30.617Z,15.90
2023-04-07T02:25:58.852Z,11.17
2023-04-07T02:28:26.575Z,14.20
2023-04-07T02:30:54.219Z,11.53
2023-04-07T02:33:21.938Z,9.30
2023-04-07T02:35:49.788Z,8.50
2023-04-07T02:38:18.827Z,7.63
2023-04-07T02:40:46.714Z,10.07
2023-04-07T02:43:16.493Z,11.10
2023-04-07T02:45:44.236Z,9.13
2023-04-07T02:48:12.046Z,9.00
2023-04-07T02:50:41.818Z,7.90
2023-04-07T02:53:10.199Z,7.53
2023-04-07T02:55:39.296Z,11.13
2023-04-07T02:58:07.094Z,8.67
2023-04-07T03:00:42.625Z,9.47
2023-04-07T03:03:17.373Z,8.97
2023-04-07T03:05:57.481Z,8.43
2023-04-07T03:08:25.729Z,9.83
2023-04-07T03:10:55.545Z,8.13
2023-04-07T03:13:29.947Z,9.07
2023-04-07T03:15:58.168Z,8.60
2023-04-07T03:18:28.366Z,9.33
2023-04-07T03:21:03.086Z,11.87
2023-04-07T03:23:31.931Z,9.20
2023-04-07T03:26:02.311Z,10.77
2023-04-07T03:28:34.862Z,7.90
2023-04-07T03:31:03.813Z,10.63
2023-04-07T03:33:31.773Z,7.63
2023-04-07T03:35:59.588Z,10.93
2023-04-07T03:38:27.343Z,9.63
2023-04-07T03:40:58.784Z,7.10
2023-04-07T03:43:27.919Z,9.60
2023-04-07T03:45:56.261Z,9.13
2023-04-07T03:48:26.940Z,8.07
2023-04-07T03:51:06.743Z,8.60
2023-04-07T03:53:35.635Z,8.33
2023-04-07T03:56:14.194Z,7.00
2023-04-07T03:58:49.479Z,8.40
2023-04-07T04:01:25.467Z,10.60
2023-04-07T04:03:54.712Z,7.90
2023-04-07T04:06:27.885Z,7.80
2023-04-07T04:09:02.672Z,10.70
2023-04-07T04:11:33.147Z,7.40
2023-04-07T04:14:06.580Z,9.27
2023-04-07T04:16:36.883Z,9.33
2023-04-07T04:19:13.006Z,8.80
2023-04-07T04:21:40.883Z,8.10
2023-04-07T04:24:09.384Z,9.20
2023-04-07T04:26:38.446Z,11.00
2023-04-07T04:29:13.265Z,9.07
2023-04-07T04:31:43.326Z,9.63
2023-04-07T04:34:12.189Z,10.77
2023-04-07T04:36:40.564Z,9.80
2023-04-07T04:39:08.391Z,8.83
2023-04-07T04:41:37.046Z,8.57
2023-04-07T04:44:05.950Z,9.27
2023-04-07T04:46:35.408Z,10.63
2023-04-07T04:49:03.452Z,7.07
2023-04-07T04:51:32.612Z,8.40
2023-04-07T04:54:06.841Z,9.30
2023-04-07T04:56:35.033Z,8.70
2023-04-07T04:59:03.712Z,11.90
2023-04-07T05:01:45.503Z,8.70
2023-04-07T05:04:17.985Z,10.03
2023-04-07T05:06:52.356Z,8.87
2023-04-07T05:09:23.364Z,13.20
2023-04-07T05:11:51.268Z,8.17
2023-04-07T05:14:19.320Z,7.47
2023-04-07T05:16:55.252Z,11.20
2023-04-07T05:19:29.651Z,9.87
2023-04-07T05:22:02.759Z,9.33
2023-04-07T05:24:33.891Z,10.33
2023-04-07T05:27:02.475Z,10.80
2023-04-07T05:29:31.937Z,9.87
2023-04-07T05:32:01.529Z,9.27
2023-04-07T05:34:31.905Z,9.90
2023-04-07T05:37:00.028Z,8.70
2023-04-07T05:39:27.755Z,10.30
2023-04-07T05:41:58.380Z,10.83
2023-04-07T05:44:28.049Z,10.90
2023-04-07T05:46:56.838Z,7.80
2023-04-07T05:49:27.980Z,11.83
2023-04-07T05:52:07.750Z,10.00
2023-04-07T05:54:41.780Z,10.73
2023-04-07T05:57:11.677Z,8.63
2023-04-07T05:59:44.653Z,12.60
2023-04-07T06:02:12.554Z,6.73
2023-04-07T06:04:42.151Z,8.23
2023-04-07T06:07:15.101Z,10.97
2023-04-07T06:09:44.359Z,8.60
2023-04-07T06:12:12.368Z,8.63
2023-04-07T06:14:40.488Z,9.10
2023-04-07T06:17:08.218Z,13.30
2023-04-07T06:19:35.895Z,7.83
2023-04-07T06:22:04.909Z,15.23
2023-04-07T06:24:32.546Z,9.93
2023-04-07T06:27:02.152Z,8.53
2023-04-07T06:29:29.929Z,9.40
2023-04-07T06:31:58.532Z,14.30
2023-04-07T06:34:26.370Z,8.03
2023-04-07T06:36:57.385Z,13.33
2023-04-07T06:39:28.710Z,8.93
2023-04-07T06:41:56.925Z,8.37
2023-04-07T06:44:24.625Z,10.60
2023-04-07T06:46:53.581Z,8.20
2023-04-07T06:49:21.259Z,7.90
2023-04-07T06:51:48.976Z,12.43
2023-04-07T06:54:16.725Z,10.53
2023-04-07T06:56:45.773Z,9.90
2023-04-07T06:59:13.599Z,10.50
2023-04-07T07:01:42.258Z,8.10
2023-04-07T07:04:10.615Z,9.03
2023-04-07T07:06:38.359Z,10.77
2023-04-07T07:09:06.173Z,9.70
2023-04-07T07:11:34.076Z,9.23
2023-04-07T07:14:04.508Z,15.20
2023-04-07T07:16:32.402Z,8.57
2023-04-07T07:19:00.131Z,10.10
2023-04-07T07:21:27.878Z,10.93
2023-04-07T07:23:55.694Z,11.93
2023-04-07T07:26:23.501Z,8.23
2023-04-07T07:28:51.259Z,10.53
2023-04-07T07:31:20.392Z,8.50
2023-04-07T07:33:50.017Z,10.03
2023-04-07T07:36:18.092Z,9.30
2023-04-07T07:38:45.812Z,8.30
2023-04-07T07:41:13.903Z,9.63
2023-04-07T07:43:41.655Z,9.53
2023-04-07T07:46:09.521Z,10.73
2023-04-07T07:48:39.908Z,10.97
2023-04-07T07:51:07.524Z,8.07
2023-04-07T07:53:35.274Z,10.60
2023-04-07T07:56:02.969Z,9.20
2023-04-07T07:58:30.701Z,8.33
2023-04-07T08:00:58.415Z,7.80
2023-04-07T08:03:26.354Z,9.03
2023-04-07T08:05:55.553Z,7.33
2023-04-07T08:08:23.313Z,7.53
2023-04-07T08:10:51.336Z,8.27
2023-04-07T08:13:19.028Z,9.27
2023-04-07T08:15:46.878Z,9.40
2023-04-07T08:18:14.575Z,10.50
2023-04-07T08:20:42.495Z,8.40
2023-04-07T08:23:11.685Z,9.80
2023-04-07T08:25:40.885Z,9.80
2023-04-07T08:28:09.830Z,7.70
2023-04-07T08:30:38.066Z,9.43
2023-04-07T08:33:07.660Z,7.77
2023-04-07T08:35:36.036Z,10.53
2023-04-07T08:38:04.048Z,8.90
2023-04-07T08:40:33.750Z,9.10
2023-04-07T08:43:01.900Z,8.23
2023-04-07T08:45:30.311Z,8.97
2023-04-07T08:47:59.365Z,8.10
2023-04-07T08:50:28.208Z,8.23
2023-04-07T08:52:57.660Z,11.67
2023-04-07T08:55:26.084Z,8.07
2023-04-07T08:57:55.596Z,11.00
2023-04-07T09:00:23.452Z,9.03
2023-04-07T09:02:52.460Z,7.50
2023-04-07T09:05:21.392Z,9.33
2023-04-07T09:07:49.201Z,10.67
2023-04-07T09:10:17.716Z,8.00
2023-04-07T09:12:45.654Z,7.27
2023-04-07T09:15:14.635Z,8.03
2023-04-07T09:17:42.527Z,10.47
2023-04-07T09:20:11.195Z,7.53
2023-04-07T09:22:40.486Z,8.83
2023-04-07T09:25:15.913Z,10.27
2023-04-07T09:27:55.426Z,9.20
2023-04-07T09:30:25.052Z,8.67
2023-04-07T09:32:52.972Z,11.63
2023-04-07T09:35:23.242Z,11.03
2023-04-07T09:38:09.339Z,8.50
2023-04-07T09:40:37.804Z,10.50
2023-04-07T09:43:07.189Z,12.63
2023-04-07T09:45:37.517Z,12.20
2023-04-07T09:48:08.797Z,7.50
2023-04-07T09:50:37.930Z,8.80
2023-04-07T09:53:05.721Z,8.10
2023-04-07T09:55:34.939Z,8.30
2023-04-07T09:58:03.469Z,8.33
2023-04-07T10:00:31.389Z,11.30
2023-04-07T10:03:00.649Z,9.43
2023-04-07T10:05:29.040Z,7.20
2023-04-07T10:07:57.050Z,9.40
2023-04-07T10:10:25.573Z,6.47
2023-04-07T10:12:57.494Z,8.03
2023-04-07T10:15:25.771Z,8.70
2023-04-07T10:17:56.850Z,11.30
2023-04-07T10:20:26.979Z,7.23
2023-04-07T10:22:57.770Z,11.73
2023-04-07T10:25:26.822Z,8.00
2023-04-07T10:27:57.876Z,9.10
2023-04-07T10:30:27.492Z,8.47
2023-04-07T10:32:57.906Z,7.97
2023-04-07T10:35:28.465Z,7.17
2023-04-07T10:38:14.891Z,7.53
2023-04-07T10:40:43.719Z,7.53
2023-04-07T10:43:12.257Z,9.93
2023-04-07T10:46:03.014Z,6.40
2023-04-07T10:48:33.176Z,7.50
2023-04-07T10:51:15.800Z,6.50
2023-04-07T10:54:13.229Z,8.27
2023-04-07T10:57:10.570Z,8.17
2023-04-07T10:59:40.074Z,8.90
2023-04-07T11:02:32.801Z,10.80
2023-04-07T11:05:01.403Z,8.20
2023-04-07T11:07:51.148Z,12.00
2023-04-07T11:10:21.944Z,11.63
2023-04-07T11:13:03.426Z,8.50
2023-04-07T11:15:31.585Z,10.70
2023-04-07T11:18:11.705Z,8.60
2023-04-07T11:20:46.194Z,8.83
2023-04-07T11:23:16.446Z,11.23
2023-04-07T11:25:45.878Z,10.13
2023-04-07T11:28:14.470Z,8.00
2023-04-07T11:30:48.670Z,6.50
2023-04-07T11:33:18.571Z,9.90
2023-04-07T11:35:55.471Z,8.47
2023-04-07T11:38:26.122Z,8.40
2023-04-07T11:40:54.233Z,8.10
2023-04-07T11:43:22.954Z,8.93
2023-04-07T11:46:08.454Z,7.10
2023-04-07T11:48:41.671Z,8.13
2023-04-07T11:51:17.451Z,5.93
2023-04-07T11:53:47.143Z,7.00
2023-04-07T11:56:18.565Z,7.80
2023-04-07T11:58:50.430Z,7.83
2023-04-07T12:01:18.446Z,7.63
2023-04-07T12:03:59.986Z,10.00
2023-04-07T12:06:30.398Z,7.67
2023-04-07T12:08:59.669Z,7.43
2023-04-07T12:11:27.699Z,5.03
2023-04-07T12:13:56.653Z,6.23
2023-04-07T12:16:24.537Z,5.50
2023-04-07T12:18:52.426Z,7.33
2023-04-07T12:21:20.385Z,6.90
2023-04-07T12:23:48.849Z,7.77
2023-04-07T12:26:18.164Z,5.73
2023-04-07T12:28:45.962Z,6.63
2023-04-07T12:31:13.628Z,10.13
2023-04-07T12:33:41.436Z,7.60
2023-04-07T12:36:09.310Z,7.60
2023-04-07T12:38:36.993Z,4.87
2023-04-07T12:41:04.704Z,6.60
2023-04-07T12:43:33.734Z,5.87
2023-04-07T12:46:01.403Z,5.83
2023-04-07T12:48:29.142Z,4.43
2023-04-07T12:50:56.742Z,5.90
2023-04-07T12:53:24.504Z,4.33
2023-04-07T12:55:52.179Z,5.87
2023-04-07T12:58:20.157Z,3.13
2023-04-07T13:00:49.197Z,4.93
2023-04-07T13:03:17.551Z,3.20
2023-04-07T13:05:45.425Z,3.37
2023-04-07T13:08:13.135Z,5.20
2023-04-07T13:10:41.386Z,3.57
2023-04-07T13:13:09.076Z,3.30
2023-04-07T13:15:36.940Z,3.03
2023-04-07T13:18:06.500Z,6.43
2023-04-07T13:20:34.530Z,4.63
2023-04-07T13:23:08.294Z,4.40
2023-04-07T13:25:37.638Z,4.90
2023-04-07T13:28:05.814Z,3.70
2023-04-07T13:30:33.703Z,3.73
2023-04-07T13:33:01.487Z,3.30
2023-04-07T13:35:33.723Z,3.23
2023-04-07T13:38:01.551Z,3.60
2023-04-07T13:40:29.334Z,4.40
2023-04-07T13:42:57.388Z,4.90
2023-04-07T13:45:25.722Z,7.57
2023-04-07T13:47:59.716Z,4.93
2023-04-07T13:50:29.513Z,4.23
2023-04-07T13:53:02.101Z,5.87
2023-04-07T13:55:30.642Z,7.17
2023-04-07T13:57:58.326Z,6.13
2023-04-07T14:00:26.170Z,4.70
2023-04-07T14:02:56.033Z,6.63
2023-04-07T14:05:24.111Z,6.03
2023-04-07T14:07:51.852Z,3.70
2023-04-07T14:10:20.910Z,7.17
2023-04-07T14:12:48.685Z,5.50
2023-04-07T14:15:18.237Z,4.40
2023-04-07T14:17:46.223Z,4.50
2023-04-07T14:20:14.118Z,6.13
2023-04-07T14:22:41.794Z,6.93
2023-04-07T14:25:09.650Z,6.87
2023-04-07T14:27:38.687Z,6.33
2023-04-07T14:30:07.470Z,7.70
2023-04-07T14:32:36.012Z,6.73
2023-04-07T14:35:03.694Z,5.87
2023-04-07T14:37:31.514Z,8.33
2023-04-07T14:40:02.987Z,6.03
2023-04-07T14:42:31.713Z,8.20
2023-04-07T14:45:03.084Z,5.20
2023-04-07T14:47:30.825Z,10.40
2023-04-07T14:49:58.457Z,5.90
2023-04-07T14:52:26.177Z,9.03
2023-04-07T14:54:53.926Z,6.90
2023-04-07T14:57:22.279Z,4.40
2023-04-07T14:59:49.960Z,4.57
2023-04-07T15:02:19.192Z,6.87
2023-04-07T15:04:47.359Z,4.47
2023-04-07T15:07:15.382Z,7.97
2023-04-07T15:09:43.099Z,6.77
2023-04-07T15:12:10.712Z,7.53
2023-04-07T15:14:38.337Z,8.13
2023-04-07T15:17:06.070Z,6.37
2023-04-07T15:19:35.113Z,4.67
2023-04-07T15:22:02.798Z,8.83
2023-04-07T15:24:30.499Z,8.17
2023-04-07T15:26:58.260Z,10.77
2023-04-07T15:29:25.973Z,8.33
2023-04-07T15:31:54.147Z,5.10
2023-04-07T15:34:22.066Z,6.10
2023-04-07T15:36:51.572Z,6.90
2023-04-07T15:39:19.353Z,7.20
2023-04-07T15:41:46.987Z,9.17
2023-04-07T15:44:18.447Z,12.00
2023-04-07T15:46:46.220Z,7.30
2023-04-07T15:49:14.202Z,9.40
2023-04-07T15:51:41.902Z,7.97
2023-04-07T15:54:11.151Z,6.00
2023-04-07T15:56:38.770Z,5.70
2023-04-07T15:59:06.504Z,5.93
2023-04-07T16:01:34.816Z,6.90
2023-04-07T16:04:02.809Z,6.83
2023-04-07T16:06:31.752Z,8.77
2023-04-07T16:08:59.749Z,11.70
2023-04-07T16:11:28.955Z,8.07
2023-04-07T16:13:56.939Z,8.47
2023-04-07T16:16:24.908Z,5.90
2023-04-07T16:18:53.079Z,6.97
2023-04-07T16:21:20.942Z,9.40
2023-04-07T16:23:49.142Z,9.80
2023-04-07T16:26:17.187Z,8.10
2023-04-07T16:28:46.563Z,13.07
2023-04-07T16:31:14.493Z,6.43
2023-04-07T16:33:42.439Z,7.50
2023-04-07T16:36:10.448Z,8.60
2023-04-07T16:38:38.415Z,8.13
2023-04-07T16:41:08.308Z,7.13
2023-04-07T16:43:36.146Z,8.60
2023-04-07T16:46:06.154Z,5.87
2023-04-07T16:48:34.525Z,5.97
2023-04-07T16:51:02.753Z,7.20
2023-04-07T16:53:30.698Z,7.70
2023-04-07T16:55:58.843Z,8.27
2023-04-07T16:58:26.601Z,8.60
2023-04-07T17:00:54.593Z,7.47
2023-04-07T17:03:23.967Z,7.87
2023-04-07T17:05:52.120Z,6.20
2023-04-07T17:08:20.063Z,6.60
2023-04-07T17:10:48.108Z,5.10
2023-04-07T17:13:16.602Z,5.03
2023-04-07T17:15:44.477Z,6.33
2023-04-07T17:18:12.493Z,4.97
2023-04-07T17:20:41.617Z,7.10
2023-04-07T17:23:10.355Z,5.97
2023-04-07T17:25:38.392Z,6.07
2023-04-07T17:28:06.358Z,6.03
2023-04-07T17:30:34.195Z,6.13
2023-04-07T17:33:03.738Z,6.17
2023-04-07T17:35:31.921Z,5.50
2023-04-07T17:38:02.634Z,4.90
2023-04-07T17:40:30.672Z,7.90
2023-04-07T17:43:00.354Z,10.03
2023-04-07T17:45:28.465Z,6.73
2023-04-07T17:47:56.432Z,7.67
2023-04-07T17:50:24.364Z,9.93
2023-04-07T17:52:52.108Z,7.47
2023-04-07T17:55:21.599Z,14.43
2023-04-07T17:57:51.575Z,9.43
2023-04-07T18:00:19.881Z,10.00
2023-04-07T18:02:47.952Z,13.67
2023-04-07T18:05:16.040Z,18.73
2023-04-07T18:07:43.723Z,10.50
2023-04-07T18:10:11.513Z,12.30
2023-04-07T18:12:40.726Z,8.23
2023-04-07T18:15:09.681Z,13.00
2023-04-07T18:17:38.323Z,11.40
2023-04-07T18:20:07.229Z,7.33
2023-04-07T18:22:35.088Z,6.40
2023-04-07T18:25:03.666Z,11.23
2023-04-07T18:27:31.458Z,9.43
2023-04-07T18:30:00.990Z,9.57
2023-04-07T18:32:30.983Z,8.23
2023-04-07T18:35:03.045Z,12.03
2023-04-07T18:37:31.992Z,9.93
2023-04-07T18:39:59.708Z,9.87
2023-04-07T18:42:27.810Z,9.33
2023-04-07T18:44:55.734Z,9.90
2023-04-07T18:47:24.793Z,10.20
2023-04-07T18:49:53.920Z,13.83
2023-04-07T18:52:22.007Z,8.17
2023-04-07T18:54:49.977Z,10.03
2023-04-07T18:57:18.092Z,11.30
2023-04-07T18:59:46.396Z,10.53
2023-04-07T19:02:14.481Z,11.27
2023-04-07T19:04:44.463Z,16.63
2023-04-07T19:07:12.475Z,11.37
2023-04-07T19:09:40.384Z,17.07
2023-04-07T19:12:09.413Z,13.60
2023-04-07T19:14:37.531Z,12.07
2023-04-07T19:17:05.224Z,14.33
2023-04-07T19:19:33.425Z,10.77
2023-04-07T19:22:02.823Z,12.40
2023-04-07T19:24:30.853Z,11.90
2023-04-07T19:26:58.750Z,11.03
2023-04-07T19:29:27.033Z,13.00
2023-04-07T19:31:57.040Z,12.70
2023-04-07T19:34:25.650Z,11.33
2023-04-07T19:36:53.398Z,14.80
2023-04-07T19:39:22.582Z,15.10
2023-04-07T19:41:50.335Z,13.00
2023-04-07T19:44:18.656Z,14.17
2023-04-07T19:46:46.869Z,13.60
2023-04-07T19:49:15.468Z,12.50
2023-04-07T19:51:43.636Z,13.93
2023-04-07T19:54:12.157Z,11.67
2023-04-07T19:56:41.943Z,9.40
2023-04-07T19:59:10.139Z,9.40
2023-04-07T20:01:38.226Z,9.40
2023-04-07T20:04:06.373Z,9.30
2023-04-07T20:06:36.683Z,10.40
2023-04-07T20:09:05.055Z,9.10
2023-04-07T20:11:33.594Z,10.07
2023-04-07T20:14:03.113Z,8.60
2023-04-07T20:16:32.484Z,7.10
2023-04-07T20:19:00.492Z,8.57
2023-04-07T20:21:28.368Z,5.50
2023-04-07T20:23:56.384Z,7.00
2023-04-07T20:26:24.769Z,6.53
2023-04-07T20:28:53.070Z,6.90
2023-04-07T20:31:23.490Z,9.17
2023-04-07T20:33:51.741Z,6.27
2023-04-07T20:36:19.829Z,6.30
2023-04-07T20:38:48.743Z,6.93
2023-04-07T20:41:17.714Z,10.20
2023-04-07T20:43:46.130Z,7.50
2023-04-07T20:46:14.381Z,9.73
2023-04-07T20:48:44.458Z,10.50
2023-04-07T20:51:12.690Z,7.40
2023-04-07T20:53:41.612Z,8.03
2023-04-07T20:56:10.227Z,9.73
2023-04-07T20:58:38.244Z,6.90
2023-04-07T21:01:06.399Z,11.53
2023-04-07T21:03:35.933Z,13.40
2023-04-07T21:06:05.730Z,10.37
2023-04-07T21:08:33.873Z,8.83
2023-04-07T21:11:01.901Z,11.50
2023-04-07T21:13:30.327Z,10.43
2023-04-07T21:15:59.353Z,13.20
2023-04-07T21:18:27.965Z,9.90
2023-04-07T21:20:57.606Z,11.37
2023-04-07T21:23:26.941Z,11.57
2023-04-07T21:25:54.906Z,13.43
2023-04-07T21:28:22.763Z,10.23
2023-04-07T21:30:53.472Z,12.73
2023-04-07T21:33:21.514Z,12.43
2023-04-07T21:35:49.850Z,21.80
2023-04-07T21:38:17.757Z,14.07
2023-04-07T21:40:47.407Z,13.63
2023-04-07T21:43:15.594Z,12.63
2023-04-07T21:45:43.725Z,12.50
2023-04-07T21:48:12.153Z,12.53
2023-04-07T21:50:40.503Z,14.33
2023-04-07T21:53:10.158Z,19.53
2023-04-07T21:55:39.656Z,11.83
2023-04-07T21:58:09.371Z,20.40
2023-04-07T22:00:38.306Z,20.80
2023-04-07T22:03:08.006Z,12.87
2023-04-07T22:05:36.287Z,15.93
2023-04-07T22:08:04.320Z,16.70
2023-04-07T22:10:32.696Z,17.30
2023-04-07T22:13:00.741Z,15.53
2023-04-07T22:15:30.191Z,15.20
2023-04-07T22:17:58.305Z,13.87
2023-04-07T22:20:27.200Z,15.73
2023-04-07T22:22:57.679Z,13.43
2023-04-07T22:25:26.089Z,13.60
2023-04-07T22:27:53.957Z,14.80
2023-04-07T22:30:24.316Z,15.43
2023-04-07T22:32:53.939Z,14.00
2023-04-07T22:35:21.841Z,15.83
2023-04-07T22:37:50.082Z,14.50
2023-04-07T22:40:18.082Z,17.80
2023-04-07T22:42:46.017Z,15.80
2023-04-07T22:45:14.128Z,16.73
2023-04-07T22:47:42.197Z,17.60
2023-04-07T22:50:12.885Z,14.53
2023-04-07T22:52:40.792Z,16.10
2023-04-07T22:55:09.779Z,13.43
2023-04-07T22:57:37.622Z,16.30
2023-04-07T23:00:06.564Z,19.73
2023-04-07T23:02:34.592Z,18.47
2023-04-07T23:05:03.319Z,14.73
2023-04-07T23:07:32.742Z,19.23
2023-04-07T23:10:00.912Z,19.27
2023-04-07T23:12:28.765Z,18.73
2023-04-07T23:14:56.572Z,17.10
2023-04-07T23:17:24.375Z,20.63
2023-04-07T23:19:52.329Z,19.70
2023-04-07T23:22:20.223Z,17.57
2023-04-07T23:24:49.473Z,19.60
2023-04-07T23:27:17.274Z,20.07
2023-04-07T23:29:45.036Z,19.77
2023-04-07T23:32:12.830Z,21.13
2023-04-07T23:34:41.895Z,23.17
2023-04-07T23:37:09.710Z,23.03
2023-04-07T23:39:37.439Z,16.87
2023-04-07T23:42:06.632Z,17.73
2023-04-07T23:44:34.536Z,17.17
2023-04-07T23:47:02.436Z,23.10
2023-04-07T23:49:30.135Z,22.20
2023-04-07T23:51:58.129Z,17.87
2023-04-07T23:54:25.984Z,24.37
2023-04-07T23:56:53.760Z,19.83
2023-04-07T23:59:23.317Z,23.17
